Airports Sweden Scandinavian Mountains Airport

Scandinavian Mountains Airport (ESKS / SCR)

Facts about Scandinavian Mountains Airport

Name Scandinavian Mountains Airport
City Sälen - Trysil
Country Sweden
ICAO code ESKS
IATA code SCR
Elevation 39.3192 meters (129 feet)

Weather

METAR

Metar data retrieved Saturday, 20 July 2024 at 00:25 UTC (2 minutes ago)

ESKS 192350Z AUTO 05004KT 9999 NCD 14/08 Q1017

Live traffic

Navigraph Charts (account required)